Time;durP1;ratioP1;P1;durP2;ratioP2;P2;SDS_P1;SDS_P2;PMS_P1;PMS_P2;Temp;Humidity;BMP_temperature;BMP_pressure;BME280_temperature;BME280_humidity;BME280_pressure;Samples;Min_cycle;Max_cycle;Signal;HPM_P1;HPM_P2
2024/03/14 00:00:17;;;;;;;39.17;24.97;;;9.80;99.90;;;;;;5131223;27;20507;-63
2024/03/14 00:02:45;;;;;;;32.47;21.60;;;9.80;99.90;;;;;;5114199;28;20500;-63
2024/03/14 00:05:11;;;;;;;24.87;19.10;;;9.90;99.90;;;;;;5131259;27;20441;-63
2024/03/14 00:07:38;;;;;;;22.07;15.83;;;9.90;99.90;;;;;;5131246;27;20538;-63
2024/03/14 00:10:06;;;;;;;26.17;17.67;;;10.00;99.90;;;;;;5131145;27;20450;-63
2024/03/14 00:12:32;;;;;;;19.30;14.03;;;10.10;99.90;;;;;;5130878;27;20518;-63
2024/03/14 00:14:59;;;;;;;26.53;20.57;;;10.10;99.90;;;;;;5130809;27;20521;-63
2024/03/14 00:17:26;;;;;;;17.80;13.60;;;10.10;99.90;;;;;;5131085;27;20445;-63
2024/03/14 00:19:54;;;;;;;14.07;11.40;;;10.20;99.90;;;;;;5130894;27;20448;-63
2024/03/14 00:22:21;;;;;;;13.10;10.27;;;10.20;99.90;;;;;;5130708;27;20442;-63
2024/03/14 00:24:48;;;;;;;10.97;9.87;;;10.20;99.90;;;;;;5130764;27;20442;-63
2024/03/14 00:27:15;;;;;;;12.57;10.17;;;10.20;99.90;;;;;;5129626;27;20448;-63
2024/03/14 00:29:41;;;;;;;12.70;9.50;;;10.20;99.90;;;;;;5130517;27;20437;-63
2024/03/14 00:32:08;;;;;;;15.70;10.47;;;10.20;99.90;;;;;;5130732;27;20446;-63
2024/03/14 00:34:36;;;;;;;11.67;9.50;;;10.20;99.90;;;;;;5130636;27;20442;-63
2024/03/14 00:37:02;;;;;;;9.80;8.80;;;10.10;99.90;;;;;;5130483;27;20438;-63
2024/03/14 00:39:31;;;;;;;11.53;9.80;;;10.10;99.90;;;;;;5130514;27;20450;-63
2024/03/14 00:41:58;;;;;;;9.30;8.40;;;10.00;99.90;;;;;;5130023;27;20956;-63
2024/03/14 00:44:25;;;;;;;9.63;8.63;;;10.00;99.90;;;;;;5130543;27;20873;-63
2024/03/14 00:46:51;;;;;;;10.50;9.03;;;10.10;99.90;;;;;;5130129;27;20896;-63
2024/03/14 00:49:18;;;;;;;9.67;8.67;;;10.10;99.90;;;;;;5130422;27;20528;-63
2024/03/14 00:51:45;;;;;;;9.83;8.40;;;10.20;99.90;;;;;;5130251;27;20528;-63
2024/03/14 00:54:12;;;;;;;9.53;8.60;;;10.20;99.90;;;;;;5130085;27;20530;-63
2024/03/14 00:56:40;;;;;;;9.63;8.10;;;10.20;99.90;;;;;;5129971;27;20941;-63
2024/03/14 00:59:07;;;;;;;9.43;7.77;;;10.20;99.90;;;;;;5130154;27;20446;-63
2024/03/14 01:01:35;;;;;;;10.03;7.93;;;10.10;99.90;;;;;;5130113;27;20441;-63
2024/03/14 01:04:03;;;;;;;9.30;8.30;;;10.10;99.90;;;;;;5129761;27;20809;-63
2024/03/14 01:06:31;;;;;;;8.80;7.87;;;10.10;99.90;;;;;;5129844;27;20796;-63
2024/03/14 01:08:58;;;;;;;8.67;7.87;;;10.10;99.90;;;;;;5129823;27;20503;-63
2024/03/14 01:11:25;;;;;;;10.77;8.53;;;10.10;99.90;;;;;;5129886;27;20529;-63
2024/03/14 01:13:51;;;;;;;7.87;7.03;;;10.20;99.90;;;;;;5129857;27;20507;-63
2024/03/14 01:16:19;;;;;;;8.50;7.60;;;10.20;99.90;;;;;;5129880;27;20446;-62
2024/03/14 01:18:49;;;;;;;9.20;7.70;;;10.30;99.90;;;;;;5129814;27;20448;-63
2024/03/14 01:21:16;;;;;;;8.57;7.70;;;10.30;99.90;;;;;;5129298;27;20485;-62
2024/03/14 01:23:43;;;;;;;11.53;8.50;;;10.40;99.90;;;;;;5129549;27;20490;-63
2024/03/14 01:26:10;;;;;;;10.23;7.93;;;10.40;99.90;;;;;;5129596;27;20940;-62
2024/03/14 01:28:37;;;;;;;9.77;8.87;;;10.50;99.90;;;;;;5129806;27;20477;-63
2024/03/14 01:31:03;;;;;;;10.87;8.30;;;10.50;99.90;;;;;;5129393;27;20967;-63
2024/03/14 01:33:31;;;;;;;10.47;8.27;;;10.60;99.90;;;;;;5129496;27;20617;-62
2024/03/14 01:36:00;;;;;;;9.60;8.60;;;10.60;99.90;;;;;;5129345;27;20521;-62
2024/03/14 01:38:27;;;;;;;9.23;8.13;;;10.50;99.90;;;;;;5128653;27;20446;-63
2024/03/14 01:40:53;;;;;;;8.83;8.03;;;10.60;99.90;;;;;;5129521;27;20434;-63
2024/03/14 01:43:20;;;;;;;9.67;8.27;;;10.70;99.90;;;;;;5129617;27;20544;-63
2024/03/14 01:45:47;;;;;;;9.47;7.67;;;10.70;99.90;;;;;;5129283;27;20859;-63
2024/03/14 01:48:14;;;;;;;8.70;7.80;;;10.70;99.90;;;;;;5112399;28;20446;-63
2024/03/14 01:50:41;;;;;;;8.67;7.37;;;10.60;99.90;;;;;;5129330;27;20448;-63
2024/03/14 01:53:07;;;;;;;9.40;7.80;;;10.50;99.90;;;;;;5129060;28;20476;-63
2024/03/14 01:55:34;;;;;;;8.03;7.13;;;10.50;99.90;;;;;;5129560;28;20481;-63
2024/03/14 01:58:01;;;;;;;10.23;7.77;;;10.60;99.90;;;;;;5129383;28;20473;-63
2024/03/14 02:00:29;;;;;;;9.07;7.70;;;10.60;99.90;;;;;;5129288;28;20536;-63
2024/03/14 02:02:56;;;;;;;11.23;9.30;;;10.70;99.90;;;;;;5129074;28;20445;-63
2024/03/14 02:05:23;;;;;;;9.00;8.03;;;10.70;99.90;;;;;;5129046;28;20894;-63
2024/03/14 02:07:53;;;;;;;12.50;8.50;;;10.70;99.90;;;;;;5129197;28;20955;-66
2024/03/14 02:10:24;;;;;;;11.07;7.77;;;10.60;99.90;;;;;;5112266;28;20494;-64
2024/03/14 02:12:53;;;;;;;10.87;9.10;;;10.70;99.90;;;;;;5128665;28;20437;-63
2024/03/14 02:15:20;;;;;;;9.60;8.67;;;10.70;99.90;;;;;;5128837;28;20959;-64
2024/03/14 02:17:47;;;;;;;10.47;8.70;;;10.70;99.90;;;;;;5129096;28;20540;-64
2024/03/14 02:20:16;;;;;;;10.87;9.73;;;10.70;99.90;;;;;;5129053;28;20878;-64
2024/03/14 02:22:42;;;;;;;10.80;8.67;;;10.60;99.90;;;;;;5128990;28;20801;-64
2024/03/14 02:25:10;;;;;;;9.90;8.80;;;10.70;99.90;;;;;;5129125;28;20481;-63
2024/03/14 02:27:36;;;;;;;10.90;9.77;;;10.70;99.90;;;;;;5129015;28;20533;-63
2024/03/14 02:30:04;;;;;;;11.20;9.83;;;10.80;99.90;;;;;;5128920;28;20536;-63
2024/03/14 02:32:30;;;;;;;10.00;9.00;;;10.80;99.90;;;;;;5128915;28;20442;-63
2024/03/14 02:34:57;;;;;;;9.37;8.47;;;10.80;99.90;;;;;;5128710;28;21039;-63
2024/03/14 02:37:23;;;;;;;9.97;8.90;;;10.80;99.90;;;;;;5129108;28;20468;-63
2024/03/14 02:39:49;;;;;;;11.27;9.17;;;10.80;99.90;;;;;;5129042;28;20960;-63
2024/03/14 02:42:16;;;;;;;11.77;10.57;;;10.80;99.90;;;;;;5128866;28;20194;-63
2024/03/14 02:44:43;;;;;;;13.60;10.97;;;10.80;99.90;;;;;;5128859;28;20442;-63
2024/03/14 02:47:10;;;;;;;10.33;9.27;;;10.80;99.90;;;;;;5128432;28;20466;-63
2024/03/14 02:49:38;;;;;;;13.00;9.70;;;10.80;99.90;;;;;;5129956;27;20480;-63
2024/03/14 02:52:06;;;;;;;14.13;10.60;;;10.80;99.90;;;;;;5132420;27;20441;-63
2024/03/14 02:54:32;;;;;;;10.20;9.20;;;10.80;99.90;;;;;;5132413;27;20864;-63
2024/03/14 02:56:59;;;;;;;11.53;9.87;;;10.70;99.90;;;;;;5132485;27;20533;-63
2024/03/14 02:59:26;;;;;;;10.60;9.50;;;10.70;99.90;;;;;;5132452;27;20480;-63
2024/03/14 03:01:53;;;;;;;11.17;9.97;;;10.80;99.90;;;;;;5132375;27;20444;-63
2024/03/14 03:04:20;;;;;;;11.27;9.90;;;10.80;99.90;;;;;;5132593;27;20445;-63
2024/03/14 03:06:53;;;;;;;11.20;10.00;;;10.80;99.90;;;;;;5132366;27;20447;-63
2024/03/14 03:09:21;;;;;;;11.07;9.93;;;10.80;99.90;;;;;;5131411;27;20925;-63
2024/03/14 03:11:47;;;;;;;10.83;9.73;;;10.80;99.90;;;;;;5132041;27;20456;-63
2024/03/14 03:14:14;;;;;;;11.67;9.60;;;10.80;99.90;;;;;;5131979;27;20576;-63
2024/03/14 03:16:41;;;;;;;11.10;9.97;;;10.70;99.90;;;;;;5132215;27;20448;-63
2024/03/14 03:19:09;;;;;;;13.57;9.97;;;10.60;99.90;;;;;;5132172;27;20529;-63
2024/03/14 03:21:37;;;;;;;10.10;9.10;;;10.70;99.90;;;;;;5131798;27;20502;-64
2024/03/14 03:24:07;;;;;;;11.07;9.80;;;10.80;99.90;;;;;;5131925;27;20450;-63
2024/03/14 03:26:33;;;;;;;10.80;9.20;;;10.80;99.90;;;;;;5131813;27;20474;-63
2024/03/14 03:29:01;;;;;;;12.00;10.40;;;10.90;99.90;;;;;;5131869;27;20945;-63
2024/03/14 03:31:26;;;;;;;11.60;9.67;;;10.90;99.90;;;;;;5131797;27;20184;-63
2024/03/14 03:33:53;;;;;;;12.30;10.00;;;11.00;99.90;;;;;;5131851;27;20502;-63
2024/03/14 03:36:22;;;;;;;11.50;10.33;;;11.00;99.90;;;;;;5131709;27;20275;-63
2024/03/14 03:38:48;;;;;;;12.97;10.60;;;11.00;99.90;;;;;;5131385;27;20449;-63
2024/03/14 03:41:14;;;;;;;11.27;10.17;;;11.00;99.90;;;;;;5131554;27;20525;-63
2024/03/14 03:43:41;;;;;;;12.23;10.47;;;11.00;99.90;;;;;;5131593;27;20462;-64
2024/03/14 03:46:07;;;;;;;13.07;10.43;;;11.00;99.90;;;;;;5131458;27;20648;-64
2024/03/14 03:48:34;;;;;;;10.87;9.87;;;11.00;99.90;;;;;;5131574;27;20449;-63
2024/03/14 03:51:00;;;;;;;10.40;9.40;;;11.00;99.90;;;;;;5131417;27;20299;-64
2024/03/14 03:53:27;;;;;;;11.20;10.10;;;11.00;99.90;;;;;;5131398;27;20449;-63
2024/03/14 03:55:52;;;;;;;12.80;10.33;;;11.10;99.90;;;;;;5131280;27;20188;-63
2024/03/14 03:58:21;;;;;;;11.77;10.67;;;11.10;99.90;;;;;;5131500;27;20500;-63
2024/03/14 04:00:46;;;;;;;11.37;10.27;;;11.00;99.90;;;;;;5131006;27;20646;-64
2024/03/14 04:03:14;;;;;;;11.60;10.50;;;11.10;99.90;;;;;;5131261;27;20492;-64
2024/03/14 04:05:42;;;;;;;11.33;9.90;;;11.10;99.90;;;;;;5131137;27;20237;-63
2024/03/14 04:08:09;;;;;;;11.90;10.80;;;11.10;99.90;;;;;;5130963;27;20457;-63
2024/03/14 04:10:36;;;;;;;13.43;12.03;;;11.20;99.90;;;;;;5130840;27;20480;-64
2024/03/14 04:13:04;;;;;;;14.70;11.33;;;11.10;99.90;;;;;;5131193;27;20453;-64
2024/03/14 04:15:31;;;;;;;12.90;11.07;;;11.20;99.90;;;;;;5130715;27;20481;-63
2024/03/14 04:17:58;;;;;;;12.23;10.50;;;11.10;99.90;;;;;;5130840;27;20998;-63
2024/03/14 04:20:27;;;;;;;11.60;10.50;;;11.20;99.90;;;;;;5130785;27;20452;-64
2024/03/14 04:22:54;;;;;;;11.97;10.80;;;11.20;99.90;;;;;;5130455;27;20802;-64
2024/03/14 04:25:21;;;;;;;13.90;11.67;;;11.20;99.90;;;;;;5130588;27;20446;-64
2024/03/14 04:27:51;;;;;;;12.20;11.00;;;11.20;99.90;;;;;;5130729;27;20541;-64
2024/03/14 04:30:20;;;;;;;12.30;11.20;;;11.20;99.90;;;;;;5130339;27;20469;-63
2024/03/14 04:32:48;;;;;;;12.43;10.37;;;11.20;99.90;;;;;;5130302;27;20841;-64
2024/03/14 04:35:15;;;;;;;12.27;11.00;;;11.20;99.90;;;;;;5130317;27;20484;-64
2024/03/14 04:37:42;;;;;;;18.93;12.37;;;11.20;99.90;;;;;;5130339;27;20448;-64
2024/03/14 04:40:11;;;;;;;12.83;11.33;;;11.20;99.90;;;;;;5130595;27;20446;-64
2024/03/14 04:42:40;;;;;;;13.90;12.20;;;11.10;99.90;;;;;;5130336;27;20445;-64
2024/03/14 04:45:07;;;;;;;13.80;12.03;;;11.20;99.90;;;;;;5130116;27;20906;-64
2024/03/14 04:47:34;;;;;;;12.77;11.50;;;11.20;99.90;;;;;;5130342;27;20445;-64
2024/03/14 04:50:01;;;;;;;18.13;12.40;;;11.30;99.90;;;;;;5130158;27;20441;-64
2024/03/14 04:52:28;;;;;;;15.00;13.07;;;11.30;99.90;;;;;;5130369;27;20445;-64
2024/03/14 04:54:55;;;;;;;17.17;12.30;;;11.20;99.90;;;;;;5130316;27;20513;-64
2024/03/14 04:57:22;;;;;;;13.73;12.10;;;11.30;99.90;;;;;;5130332;27;20438;-63
2024/03/14 04:59:49;;;;;;;13.53;12.13;;;11.20;99.90;;;;;;5130140;27;20453;-64
2024/03/14 05:02:20;;;;;;;16.30;13.43;;;11.20;99.90;;;;;;5130070;27;20480;-65
2024/03/14 05:04:46;;;;;;;15.07;13.10;;;11.20;99.90;;;;;;5130128;27;20449;-62
2024/03/14 05:07:13;;;;;;;15.77;13.07;;;11.20;99.90;;;;;;5130049;27;20437;-62
2024/03/14 05:09:40;;;;;;;16.93;12.53;;;11.20;99.90;;;;;;5129989;27;20438;-63
2024/03/14 05:12:07;;;;;;;17.47;13.60;;;11.20;99.90;;;;;;5129324;27;20452;-63
2024/03/14 05:14:34;;;;;;;16.33;13.70;;;11.20;99.90;;;;;;5129677;27;20477;-63
2024/03/14 05:17:01;;;;;;;15.93;12.90;;;11.20;99.90;;;;;;5129775;27;20793;-63
2024/03/14 05:19:28;;;;;;;18.80;14.10;;;11.30;99.90;;;;;;5129555;27;20790;-63
2024/03/14 05:21:54;;;;;;;17.13;14.07;;;11.30;99.90;;;;;;5129708;27;20473;-63
2024/03/14 05:24:21;;;;;;;17.97;12.97;;;11.40;99.90;;;;;;5129674;27;20445;-63
2024/03/14 05:26:48;;;;;;;17.40;14.10;;;11.30;99.90;;;;;;5129659;27;20540;-63
2024/03/14 05:29:15;;;;;;;19.67;15.63;;;11.40;99.90;;;;;;5129528;27;20449;-62
2024/03/14 05:31:42;;;;;;;18.00;14.10;;;11.40;99.90;;;;;;5129368;27;20445;-62
2024/03/14 05:34:09;;;;;;;16.93;13.17;;;11.40;99.90;;;;;;5129508;27;20837;-63
2024/03/14 05:36:36;;;;;;;20.50;15.50;;;11.40;99.90;;;;;;5129593;27;20441;-63
2024/03/14 05:39:04;;;;;;;16.67;13.87;;;11.50;99.90;;;;;;5129525;27;20448;-63
2024/03/14 05:41:30;;;;;;;21.67;14.37;;;11.40;99.90;;;;;;5129231;27;20528;-63
2024/03/14 05:43:57;;;;;;;27.10;15.63;;;11.40;99.90;;;;;;5129268;27;20438;-63
2024/03/14 05:46:25;;;;;;;21.80;15.07;;;11.40;99.90;;;;;;5129128;27;20549;-63
2024/03/14 05:48:52;;;;;;;23.30;16.33;;;11.50;99.90;;;;;;5129076;27;20477;-62
2024/03/14 05:51:20;;;;;;;20.17;15.50;;;11.40;99.90;;;;;;5129360;27;20515;-62
2024/03/14 05:53:46;;;;;;;23.00;16.43;;;11.40;99.90;;;;;;5129095;28;20450;-62
2024/03/14 05:56:15;;;;;;;18.17;15.20;;;11.50;99.90;;;;;;5129312;28;20532;-63
2024/03/14 05:58:44;;;;;;;18.80;14.63;;;11.50;99.90;;;;;;5128784;28;20452;-62
2024/03/14 06:01:11;;;;;;;17.83;14.10;;;11.50;99.90;;;;;;5128973;28;21072;-62
2024/03/14 06:03:38;;;;;;;23.90;15.57;;;11.50;99.90;;;;;;5129159;28;20442;-62
2024/03/14 06:06:06;;;;;;;18.43;14.50;;;11.60;99.90;;;;;;5129126;28;20506;-62
2024/03/14 06:08:32;;;;;;;17.40;14.30;;;11.60;99.90;;;;;;5128988;28;20445;-62
2024/03/14 06:11:00;;;;;;;18.87;15.37;;;11.60;99.90;;;;;;5128908;28;20528;-62
2024/03/14 06:13:27;;;;;;;20.40;14.63;;;11.70;99.90;;;;;;5128841;28;20454;-62
2024/03/14 06:15:53;;;;;;;20.87;14.90;;;11.70;99.90;;;;;;5128721;28;20837;-62
2024/03/14 06:18:21;;;;;;;18.93;15.50;;;11.80;99.90;;;;;;5129017;28;20544;-62
2024/03/14 06:20:48;;;;;;;20.60;14.80;;;11.80;99.90;;;;;;5128808;28;20528;-62
2024/03/14 06:23:15;;;;;;;16.60;14.20;;;11.80;99.90;;;;;;5129263;28;20520;-62
2024/03/14 06:25:41;;;;;;;21.60;16.37;;;11.90;99.90;;;;;;5133032;27;20534;-62
2024/03/14 06:28:08;;;;;;;19.63;15.33;;;11.90;99.90;;;;;;5132851;27;20529;-62
2024/03/14 06:30:35;;;;;;;18.50;14.97;;;11.90;99.90;;;;;;5133046;27;20447;-63
2024/03/14 06:33:02;;;;;;;19.53;15.80;;;11.90;99.90;;;;;;5132954;27;20438;-62
2024/03/14 06:35:29;;;;;;;21.27;16.10;;;12.00;99.90;;;;;;5132671;27;20487;-63
2024/03/14 06:37:55;;;;;;;20.10;16.00;;;11.90;99.90;;;;;;5132733;27;20495;-63
2024/03/14 06:40:22;;;;;;;20.43;15.27;;;12.00;99.90;;;;;;5132557;27;20532;-63
2024/03/14 06:42:49;;;;;;;18.67;15.10;;;11.90;99.90;;;;;;5132497;27;20440;-63
2024/03/14 06:45:16;;;;;;;19.77;15.40;;;11.90;99.90;;;;;;5132578;27;20448;-63
2024/03/14 06:47:45;;;;;;;23.83;15.37;;;12.00;99.90;;;;;;5132621;27;20462;-63
2024/03/14 06:50:12;;;;;;;20.73;15.57;;;12.00;99.90;;;;;;5132031;27;20928;-63
2024/03/14 06:52:39;;;;;;;22.00;16.77;;;12.00;99.90;;;;;;5132342;27;20449;-63
2024/03/14 06:55:09;;;;;;;18.77;15.03;;;12.10;99.90;;;;;;5132178;27;20573;-63
2024/03/14 06:57:39;;;;;;;20.90;16.73;;;12.10;99.90;;;;;;5132168;27;20449;-63
2024/03/14 07:00:12;;;;;;;19.60;15.50;;;12.10;99.90;;;;;;5132142;27;20968;-63
2024/03/14 07:02:40;;;;;;;23.10;17.37;;;12.10;99.90;;;;;;5131820;27;20495;-62
2024/03/14 07:05:09;;;;;;;19.33;15.97;;;12.20;99.90;;;;;;5132195;27;20449;-62
2024/03/14 07:07:36;;;;;;;21.40;15.60;;;12.30;99.90;;;;;;5131912;27;20444;-62
2024/03/14 07:10:03;;;;;;;20.67;16.77;;;12.30;99.90;;;;;;5132233;27;20453;-62
2024/03/14 07:12:31;;;;;;;21.53;15.90;;;12.30;99.90;;;;;;5132369;27;20446;-62
2024/03/14 07:14:59;;;;;;;21.03;16.33;;;12.30;99.90;;;;;;5131819;27;20479;-62
2024/03/14 07:17:27;;;;;;;21.27;15.43;;;12.30;99.90;;;;;;5131913;27;20449;-62
2024/03/14 07:19:54;;;;;;;21.33;16.40;;;12.30;99.90;;;;;;5131946;27;20445;-63
2024/03/14 07:22:24;;;;;;;24.50;18.33;;;12.40;99.90;;;;;;5131694;27;20956;-62
2024/03/14 07:24:51;;;;;;;19.77;15.27;;;12.40;99.90;;;;;;5131669;27;20536;-62
2024/03/14 07:27:19;;;;;;;23.27;16.67;;;12.60;99.90;;;;;;5131890;27;20446;-62
2024/03/14 07:29:47;;;;;;;20.87;15.30;;;12.70;99.90;;;;;;5131787;27;20442;-62
2024/03/14 07:32:14;;;;;;;22.70;15.60;;;12.70;99.90;;;;;;5131659;27;20441;-62
2024/03/14 07:34:44;;;;;;;20.10;16.27;;;12.80;99.90;;;;;;5131269;27;20473;-62
2024/03/14 07:37:12;;;;;;;21.30;15.80;;;12.90;99.90;;;;;;5131350;27;20442;-62
2024/03/14 07:39:39;;;;;;;21.80;15.67;;;12.90;99.90;;;;;;5131696;27;20446;-63
2024/03/14 07:42:06;;;;;;;19.10;16.30;;;13.00;99.90;;;;;;5131655;27;20493;-63
2024/03/14 07:44:34;;;;;;;26.20;16.60;;;13.10;99.90;;;;;;5131515;27;20449;-62
2024/03/14 07:47:00;;;;;;;19.23;15.53;;;13.00;99.90;;;;;;5131151;27;20465;-62
2024/03/14 07:49:27;;;;;;;20.40;16.23;;;13.00;99.90;;;;;;5131414;27;20544;-62
2024/03/14 07:51:55;;;;;;;22.80;17.90;;;13.00;99.90;;;;;;5131573;27;20853;-62
2024/03/14 07:54:22;;;;;;;20.37;15.90;;;13.00;99.90;;;;;;5131249;27;20566;-63
2024/03/14 07:56:51;;;;;;;23.67;16.90;;;13.00;99.90;;;;;;5131169;27;20477;-63
2024/03/14 07:59:19;;;;;;;22.33;17.53;;;13.00;99.90;;;;;;5130885;27;20481;-63
2024/03/14 08:01:46;;;;;;;25.10;20.07;;;13.00;99.90;;;;;;5130759;27;20446;-63
2024/03/14 08:04:23;;;;;;;23.53;18.30;;;13.10;99.90;;;;;;5131220;27;20439;-63
2024/03/14 08:06:50;;;;;;;24.63;18.67;;;13.20;99.90;;;;;;5114783;27;20453;-63
2024/03/14 08:09:19;;;;;;;21.30;17.10;;;13.20;99.90;;;;;;5117049;27;20908;-67
2024/03/14 08:11:45;;;;;;;20.13;16.73;;;13.30;99.90;;;;;;5117534;27;20978;-65
2024/03/14 08:14:12;;;;;;;17.90;15.33;;;13.30;99.90;;;;;;5117199;27;20516;-64
2024/03/14 08:16:39;;;;;;;26.80;18.73;;;13.40;99.90;;;;;;5116952;27;20478;-67
2024/03/14 08:19:09;;;;;;;23.57;18.00;;;13.40;99.90;;;;;;5117396;27;20804;-66
2024/03/14 08:21:36;;;;;;;22.27;16.77;;;13.30;99.90;;;;;;5117799;27;20444;-66
2024/03/14 08:24:11;;;;;;;25.00;17.93;;;13.40;99.90;;;;;;5117080;27;20486;-67
2024/03/14 08:26:38;;;;;;;28.77;17.57;;;13.40;99.90;;;;;;5118331;27;20440;-65
2024/03/14 08:29:05;;;;;;;23.03;18.17;;;13.40;99.90;;;;;;5117072;27;20970;-63
2024/03/14 08:31:31;;;;;;;25.23;17.97;;;13.50;99.90;;;;;;5117101;27;20902;-65
2024/03/14 08:33:58;;;;;;;22.70;17.20;;;13.40;99.90;;;;;;5117021;27;20467;-63
2024/03/14 08:36:27;;;;;;;24.00;17.67;;;13.40;99.90;;;;;;5116904;27;20476;-66
2024/03/14 08:38:54;;;;;;;22.13;17.13;;;13.40;99.90;;;;;;5117017;27;20441;-64
2024/03/14 08:41:21;;;;;;;24.67;16.97;;;13.40;99.90;;;;;;5116747;27;20472;-63
2024/03/14 08:43:48;;;;;;;24.77;17.60;;;13.40;99.90;;;;;;5116857;27;20441;-63
2024/03/14 08:46:15;;;;;;;21.47;16.73;;;13.40;99.90;;;;;;5116553;27;20553;-64
2024/03/14 08:48:42;;;;;;;22.57;17.83;;;13.50;99.90;;;;;;5115860;27;20874;-62
2024/03/14 08:51:09;;;;;;;22.00;16.90;;;13.50;99.90;;;;;;5116885;27;20440;-63
2024/03/14 08:54:07;;;;;;;23.67;17.30;;;13.60;99.90;;;;;;5116412;27;20449;-64
2024/03/14 08:56:24;;;;;;;29.77;17.13;;;13.50;99.90;;;;;;5118051;27;20472;-65
2024/03/14 08:58:56;;;;;;;23.83;17.50;;;13.60;99.90;;;;;;5115639;27;20531;-67
2024/03/14 09:01:23;;;;;;;24.57;16.70;;;13.60;99.90;;;;;;5116861;27;20924;-66
2024/03/14 09:03:50;;;;;;;23.83;16.77;;;13.50;99.90;;;;;;5122019;27;20464;-64
2024/03/14 09:06:18;;;;;;;24.37;17.73;;;13.60;99.90;;;;;;5120695;27;20946;-63
2024/03/14 09:08:44;;;;;;;28.90;18.03;;;13.60;99.90;;;;;;5116286;27;21005;-63
2024/03/14 09:11:11;;;;;;;23.80;17.73;;;13.50;99.90;;;;;;5126970;27;20441;-65
2024/03/14 09:13:38;;;;;;;21.57;16.37;;;13.50;99.90;;;;;;5124058;27;20932;-65
2024/03/14 09:16:06;;;;;;;26.37;17.50;;;13.60;99.90;;;;;;5116141;27;20537;-67
2024/03/14 09:18:32;;;;;;;24.77;17.10;;;13.60;99.90;;;;;;5116281;27;20442;-68
2024/03/14 09:21:00;;;;;;;22.70;16.30;;;13.60;99.90;;;;;;5123248;27;20940;-65
2024/03/14 09:23:28;;;;;;;26.60;19.47;;;13.70;99.90;;;;;;5127437;27;20441;-61
2024/03/14 09:25:57;;;;;;;21.97;17.07;;;13.80;99.90;;;;;;5126985;27;20804;-60
2024/03/14 09:28:25;;;;;;;21.93;17.30;;;13.90;99.90;;;;;;5122314;27;20960;-61
2024/03/14 09:30:57;;;;;;;23.37;18.43;;;14.00;99.90;;;;;;5112997;27;20442;-59
2024/03/14 09:33:25;;;;;;;22.97;17.13;;;14.00;99.90;;;;;;5113548;27;20466;-60
2024/03/14 09:35:51;;;;;;;21.07;16.77;;;13.80;99.90;;;;;;5115081;27;20483;-61
2024/03/14 09:38:18;;;;;;;23.17;18.10;;;13.80;99.90;;;;;;5115494;27;20436;-62
2024/03/14 09:40:45;;;;;;;26.30;16.50;;;14.00;99.90;;;;;;5115535;27;20467;-60
2024/03/14 09:43:14;;;;;;;23.03;18.17;;;14.10;99.90;;;;;;5115160;27;20521;-63
2024/03/14 09:45:40;;;;;;;22.90;17.17;;;14.00;99.90;;;;;;5115281;28;20464;-63
2024/03/14 09:48:08;;;;;;;22.10;17.30;;;14.20;99.90;;;;;;5113154;27;20516;-67
2024/03/14 09:50:35;;;;;;;21.30;16.30;;;14.20;99.90;;;;;;5113124;27;20538;-63
2024/03/14 09:53:03;;;;;;;21.67;17.77;;;14.40;99.90;;;;;;5110563;28;20445;-64
2024/03/14 09:55:30;;;;;;;22.60;16.10;;;14.30;99.90;;;;;;5113371;28;20458;-62
2024/03/14 09:57:57;;;;;;;23.03;17.33;;;14.50;99.90;;;;;;5112754;27;20433;-62
2024/03/14 10:00:25;;;;;;;21.07;16.90;;;14.70;99.90;;;;;;5113029;28;20823;-64
2024/03/14 10:02:52;;;;;;;21.53;16.50;;;14.80;99.90;;;;;;5114844;28;20454;-64
2024/03/14 10:05:19;;;;;;;20.77;16.67;;;14.90;99.90;;;;;;5115106;28;20459;-65
2024/03/14 10:07:46;;;;;;;21.40;16.23;;;15.10;99.90;;;;;;5115190;28;20816;-65
2024/03/14 10:10:13;;;;;;;23.60;18.80;;;15.10;99.90;;;;;;5115202;28;20441;-64
2024/03/14 10:12:40;;;;;;;20.73;15.80;;;15.00;99.90;;;;;;5115631;28;20860;-66
2024/03/14 10:15:12;;;;;;;19.97;15.90;;;15.00;99.90;;;;;;5114760;28;20461;-65
2024/03/14 10:17:40;;;;;;;23.00;16.13;;;15.00;99.90;;;;;;5115969;28;20622;-63
2024/03/14 10:20:12;;;;;;;21.90;15.50;;;15.10;99.90;;;;;;5112625;28;20935;-65
2024/03/14 10:22:39;;;;;;;18.93;14.93;;;15.20;99.90;;;;;;5115756;28;20441;-65
2024/03/14 10:25:06;;;;;;;22.80;16.50;;;15.30;99.90;;;;;;5112094;28;20442;-64
2024/03/14 10:27:33;;;;;;;21.40;16.90;;;15.30;99.90;;;;;;5114757;28;20523;-64
2024/03/14 10:29:59;;;;;;;19.53;15.00;;;15.30;99.90;;;;;;5114618;28;20532;-65
2024/03/14 10:32:27;;;;;;;22.20;16.57;;;15.40;99.90;;;;;;5112278;28;20535;-62
2024/03/14 10:34:54;;;;;;;18.80;14.90;;;15.50;99.90;;;;;;5115117;28;20436;-62
2024/03/14 10:37:22;;;;;;;18.03;15.40;;;15.60;99.90;;;;;;5114808;28;20512;-65
2024/03/14 10:39:49;;;;;;;20.23;15.00;;;15.60;99.90;;;;;;5115068;28;20444;-64
2024/03/14 10:42:16;;;;;;;18.40;15.23;;;15.80;99.90;;;;;;5114827;28;20474;-64
2024/03/14 10:44:43;;;;;;;16.63;14.70;;;15.80;99.90;;;;;;5114916;28;20436;-65
2024/03/14 10:47:09;;;;;;;15.93;13.40;;;16.00;99.90;;;;;;5114352;28;20490;-68
2024/03/14 10:49:37;;;;;;;14.77;12.47;;;16.10;99.90;;;;;;5114742;28;20450;-67
2024/03/14 10:52:04;;;;;;;18.83;14.70;;;16.20;99.90;;;;;;5114736;28;20430;-64
2024/03/14 10:54:31;;;;;;;16.30;13.47;;;16.30;99.90;;;;;;5114630;28;20444;-65
2024/03/14 10:56:58;;;;;;;15.10;13.37;;;16.30;99.90;;;;;;5114812;28;20801;-67
2024/03/14 10:59:24;;;;;;;12.87;11.40;;;16.20;99.90;;;;;;5114710;28;20532;-64
2024/03/14 11:01:54;;;;;;;15.27;12.67;;;16.20;99.90;;;;;;5114707;28;20444;-65
2024/03/14 11:04:21;;;;;;;13.70;12.00;;;16.20;99.90;;;;;;5114908;28;21007;-67
2024/03/14 11:06:49;;;;;;;12.73;10.40;;;16.10;99.90;;;;;;5114430;28;20443;-66
2024/03/14 11:09:16;;;;;;;14.03;10.47;;;16.20;99.90;;;;;;5114579;28;20449;-65
2024/03/14 11:11:45;;;;;;;12.23;10.33;;;16.30;99.90;;;;;;5117237;27;20942;-65
2024/03/14 11:14:11;;;;;;;11.90;10.63;;;16.50;99.90;;;;;;5118387;27;20526;-66
2024/03/14 11:16:40;;;;;;;10.77;9.67;;;16.70;99.90;;;;;;5117876;27;20479;-63
2024/03/14 11:19:07;;;;;;;11.07;9.90;;;16.80;99.90;;;;;;5115508;27;20470;-62
2024/03/14 11:21:34;;;;;;;11.10;8.80;;;16.70;99.90;;;;;;5117845;27;20496;-65
2024/03/14 11:24:01;;;;;;;11.57;9.77;;;16.90;99.90;;;;;;5118367;27;20453;-64
2024/03/14 11:26:29;;;;;;;11.70;9.30;;;16.90;99.90;;;;;;5118497;27;20535;-63
2024/03/14 11:29:02;;;;;;;9.93;8.57;;;16.90;99.90;;;;;;5118333;27;20440;-64
2024/03/14 11:31:37;;;;;;;9.60;8.70;;;16.80;99.90;;;;;;5119146;27;20479;-67
2024/03/14 11:34:03;;;;;;;8.20;6.10;;;16.80;99.90;;;;;;5118767;27;20439;-67
2024/03/14 11:36:30;;;;;;;7.87;7.13;;;16.90;99.90;;;;;;5117901;27;20479;-66
2024/03/14 11:39:09;;;;;;;9.13;6.93;;;16.90;99.90;;;;;;5118265;27;20444;-66
2024/03/14 11:41:38;;;;;;;6.87;6.20;;;16.80;99.90;;;;;;5119731;27;20555;-68
2024/03/14 11:44:14;;;;;;;6.93;6.23;;;17.00;99.90;;;;;;5118290;27;20451;-64
2024/03/14 11:46:41;;;;;;;6.70;6.00;;;17.10;99.90;;;;;;5117913;27;20464;-63
2024/03/14 11:49:15;;;;;;;7.93;7.17;;;17.20;99.90;;;;;;5118081;27;21009;-63
2024/03/14 11:51:42;;;;;;;6.20;5.53;;;17.40;99.90;;;;;;5118161;27;20455;-67
2024/03/14 11:54:10;;;;;;;6.07;5.50;;;17.40;99.90;;;;;;5117765;27;20446;-67
2024/03/14 11:56:39;;;;;;;7.23;6.37;;;17.40;99.90;;;;;;5117527;27;20603;-67
2024/03/14 11:59:05;;;;;;;8.43;7.63;;;17.20;99.90;;;;;;5133301;27;20437;-66
2024/03/14 12:01:32;;;;;;;7.27;6.57;;;17.10;99.90;;;;;;5116913;27;20465;-66
2024/03/14 12:03:59;;;;;;;7.20;6.50;;;17.30;99.90;;;;;;5117159;27;20440;-66
2024/03/14 12:06:26;;;;;;;9.60;7.80;;;17.40;99.90;;;;;;5117063;27;20993;-67
2024/03/14 12:08:52;;;;;;;8.03;7.17;;;17.40;99.90;;;;;;5117052;27;20436;-68
2024/03/14 12:11:20;;;;;;;6.77;6.07;;;17.50;99.90;;;;;;5117073;27;20444;-69
2024/03/14 12:13:48;;;;;;;9.03;6.93;;;17.60;99.90;;;;;;5117017;27;20444;-69
2024/03/14 12:16:15;;;;;;;8.63;7.13;;;17.70;99.90;;;;;;5114277;27;20500;-69
2024/03/14 12:18:42;;;;;;;8.00;6.93;;;17.60;99.90;;;;;;5116695;27;20955;-69
2024/03/14 12:21:12;;;;;;;9.03;7.63;;;17.60;99.90;;;;;;5116684;27;20866;-64
2024/03/14 12:23:40;;;;;;;9.93;8.13;;;17.80;99.90;;;;;;5114569;27;20447;-64
2024/03/14 12:26:07;;;;;;;9.90;7.50;;;18.00;99.90;;;;;;5116821;27;20515;-64
2024/03/14 12:28:35;;;;;;;10.77;9.03;;;17.80;99.90;;;;;;5116579;27;20440;-64
2024/03/14 12:31:01;;;;;;;7.43;6.73;;;17.90;99.90;;;;;;5116786;27;20578;-65
2024/03/14 12:33:28;;;;;;;8.70;7.67;;;17.80;99.90;;;;;;5116648;27;20539;-65